Meteo Giornale » Osservazioni meteo Stati Uniti (USA) » Joliet

ore: 09:55 - Osservazioni Meteo Joliet
Lat. 41° 31' N Lon. 88° 10' W Alt. 177 metri s.l.m.

nuvoloso

29 °C

Nuvoloso

Temp. 24 Ore

24 °C

34 °C

Nord

0 Km/h

Dew point 24 °C

Umidità 74 %

Visibilità  10 Km

Il sole sorge alle ore 06:19

Il sole tramonta alle ore 19:26

Data e Ora Cielo e Fenomeni T °C DP °C Um. % Pres. hPa Vis. km Vento km/h
Oggi h: 09:55 nuvoloso Nuvoloso 29 24 74 1015 10 N 0
Oggi h: 09:35 nuvoloso Nuvoloso 28 24 78 1015 10 N 5.5
Oggi h: 09:15 sereno Sereno 27 24 83 1015 10 N 5.5
Oggi h: 08:55 sereno Sereno 26 25 94 1015 10 N 0
Oggi h: 08:35 sereno Sereno 26 24 88 1015 10 N 0
Oggi h: 08:15 sereno Sereno 25 24 94 1016 10 N 0
Oggi h: 07:55 nuvoloso Nuvoloso 24 24 100 1016 10 N 0
Oggi h: 07:35 nuvoloso Nuvoloso 24 24 100 1015 10 N 5.5
Oggi h: 07:15 sereno Sereno 24 24 100 1015 10 N 0
Oggi h: 06:55 sereno Sereno 24 24 100 1015 10 N 5.5
Oggi h: 06:35 nuvoloso Nuvoloso 24 24 100 1015 11 N 0
Oggi h: 06:15 coperto_pioggia Pioggia 24 24 100 1015 11 N 5.5
Oggi h: 05:55 coperto_pioggia Pioggia 24 24 100 1015 11 N 0
Oggi h: 05:35 coperto_pioggia Pioggia 24 24 100 1014 8 N 5.5
Oggi h: 05:15 coperto_pioggia Pioggia 24 24 100 1015 5 N 0
Oggi h: 04:55 coperto_pioggia Pioggia 24 24 100 1015 11 N 0
Oggi h: 04:35 coperto_pioggia Pioggia 25 23 88 1015 10 N 0
Oggi h: 04:15 sereno Sereno 25 23 88 1014 10 N 0
Oggi h: 03:55 coperto_pioggia Pioggia 25 23 88 1014 10 N 0
Oggi h: 03:35 nuvoloso Nuvoloso 25 23 88 1014 10 N 0
Oggi h: 03:15 nuvoloso Nuvoloso 26 23 83 1014 10 N 0
Oggi h: 02:55 sereno Sereno 26 23 83 1014 10 N 5.5
Oggi h: 02:35 sereno Sereno 26 23 83 1014 10 N 5.5
Oggi h: 02:15 sereno Sereno 26 23 83 1014 10 S/SO 7.4
Oggi h: 01:55 sereno Sereno 26 23 83 1014 10 SO 9.3
Oggi h: 01:35 sereno Sereno 26 23 83 1014 10 SO 7.4
Oggi h: 01:15 sereno Sereno 26 23 83 1014 10 S/SO 9.3
Oggi h: 00:55 sereno Sereno 26 23 83 1014 10 S/SO 7.4
Oggi h: 00:35 sereno Sereno 25 23 88 1014 10 N 5.5
Oggi h: 00:15 sereno Sereno 25 24 94 1014 10 N 5.5
Ieri h: 23:55 sereno Sereno 24 24 100 1014 10 N 0
Ieri h: 23:35 sereno Sereno 24 24 100 1014 10 N 0
Ieri h: 23:15 sereno Sereno 25 24 94 1014 10 N 0
Ieri h: 22:55 sereno Sereno 26 24 88 1014 10 N 0
Ieri h: 22:35 sereno Sereno 26 24 88 1014 10 N 0
Ieri h: 22:15 sereno Sereno 26 25 94 1014 10 N 5.5
Ieri h: 21:55 sereno Sereno 25 25 100 1014 10 N 5.5
Ieri h: 21:35 nuvoloso Nuvoloso 27 25 88 1014 10 N 0
Ieri h: 21:15 nuvoloso Nuvoloso 26 26 100 1014 10 N 5.5
Ieri h: 20:55 sereno Sereno 26 26 100 1014 10 N 0
Ieri h: 20:35 nuvoloso Nuvoloso 26 26 100 1014 10 N 0
Ieri h: 20:15 nuvoloso Nuvoloso 27 26 94 1014 10 N 0
Ieri h: 19:55 nuvoloso Nuvoloso 27 26 94 1014 10 N 0
Ieri h: 19:35 nuvoloso Nuvoloso 27 25 88 1014 10 S 7.4
Ieri h: 19:15 coperto_pioggia Pioggia 26 25 94 1014 10 S 11.1
Ieri h: 18:55 coperto_pioggia Pioggia 27 22 74 1013 5 N 5.5
Ieri h: 18:35 coperto Coperto 32 24 62 1014 10 O/SO 7.4
Ieri h: 18:15 molto_nuvoloso Molto Nuvoloso 31 24 66 1014 10 N 5.5
Ieri h: 17:55 coperto Coperto 32 23 59 1013 10 N 5.5
Ieri h: 17:35 nuvoloso Nuvoloso 33 23 55 1014 10 SO 7.4
Ieri h: 17:15 sereno Sereno 33 22 52 1013 10 SO 11.1
Ieri h: 16:55 sereno Sereno 33 23 55 1013 10 S/SO 14.8
Ieri h: 16:35 sereno Sereno 34 22 49 1013 10 SO 16.7
Ieri h: 16:15 sereno Sereno 34 22 49 1013 10 SO 13
Ieri h: 15:55 sereno Sereno 34 22 49 1013 10 O 11.1
Ieri h: 15:35 nuvoloso Nuvoloso 34 22 49 1013 10 O 16.7
Ieri h: 15:15 nuvoloso Nuvoloso 34 22 49 1013 10 O/SO 16.7
Ieri h: 14:55 nuvoloso Nuvoloso 34 22 49 1013 10 SO 16.7
Ieri h: 14:35 nuvoloso Nuvoloso 33 22 52 1013 10 S/SO 18.5
Ieri h: 14:15 nuvoloso Nuvoloso 33 22 52 1013 10 S/SO 16.7
Ieri h: 13:55 sereno Sereno 33 22 52 1014 10 S 18.5
Ieri h: 13:35 sereno Sereno 32 21 52 1014 10 S/SO 16.7
Ieri h: 13:15 sereno Sereno 31 22 58 1014 10 S/SO 13
Ieri h: 12:55 sereno Sereno 31 21 55 1014 10 S 14.8
Ieri h: 12:35 sereno Sereno 29 22 66 1014 10 S 11.1
Ieri h: 12:15 molto_nuvoloso Molto Nuvoloso 29 22 66 1015 10 S 11.1
Ieri h: 11:55 coperto Coperto 27 22 74 1015 10 S 11.1
Ieri h: 11:35 coperto Coperto 26 21 73 1015 10 S 9.3
Ieri h: 11:15 coperto Coperto 25 21 78 1015 10 S/SE 7.4
Ieri h: 10:55 coperto Coperto 25 21 78 1016 10 SE 7.4
Ieri h: 10:35 coperto Coperto 25 22 83 1016 10 N 5.5